Time;durP1;ratioP1;P1;durP2;ratioP2;P2;SDS_P1;SDS_P2;PMS_P1;PMS_P2;Temp;Humidity;BMP_temperature;BMP_pressure;BME280_temperature;BME280_humidity;BME280_pressure;Samples;Min_cycle;Max_cycle;Signal;HPM_P1;HPM_P2
2021/12/27 00:00:30;;;;;;;7.40;4.70;;;;;;;;;;5105165;28;20027;-52
2021/12/27 00:02:58;;;;;;;6.80;4.25;;;;;;;;;;5094526;28;20134;-53
2021/12/27 00:05:23;;;;;;;9.38;4.47;;;;;;;;;;5106145;28;20036;-53
2021/12/27 00:07:49;;;;;;;6.45;4.07;;;;;;;;;;5104725;28;20087;-50
2021/12/27 00:10:14;;;;;;;12.73;4.45;;;;;;;;;;5105019;28;20024;-49
2021/12/27 00:12:40;;;;;;;7.05;3.70;;;;;;;;;;5105430;28;20070;-52
2021/12/27 00:15:05;;;;;;;7.53;4.10;;;;;;;;;;5105216;28;20036;-51
2021/12/27 00:17:30;;;;;;;6.80;4.38;;;;;;;;;;5105833;28;20036;-53
2021/12/27 00:19:56;;;;;;;8.18;4.70;;;;;;;;;;5106138;28;20512;-51
2021/12/27 00:22:22;;;;;;;8.30;4.22;;;;;;;;;;5100567;28;20055;-52
2021/12/27 00:24:47;;;;;;;7.20;4.13;;;;;;;;;;5076434;28;20032;-53
2021/12/27 00:27:14;;;;;;;9.05;5.13;;;;;;;;;;5105273;28;20039;-53
2021/12/27 00:29:39;;;;;;;7.20;4.03;;;;;;;;;;5103866;28;20165;-52
2021/12/27 00:32:04;;;;;;;6.43;4.10;;;;;;;;;;5102776;28;20472;-55
2021/12/27 00:34:29;;;;;;;7.75;4.85;;;;;;;;;;5099363;28;20107;-52
2021/12/27 00:36:55;;;;;;;6.32;4.47;;;;;;;;;;5103571;28;20058;-50
2021/12/27 00:39:20;;;;;;;6.35;4.43;;;;;;;;;;5096984;28;20039;-54
2021/12/27 00:41:45;;;;;;;5.90;3.70;;;;;;;;;;5095198;28;20064;-50
2021/12/27 00:44:10;;;;;;;4.55;3.55;;;;;;;;;;5094205;28;20028;-50
2021/12/27 00:46:36;;;;;;;5.82;3.95;;;;;;;;;;5094429;28;20205;-53
2021/12/27 00:49:01;;;;;;;7.70;3.88;;;;;;;;;;5093364;28;20518;-51
2021/12/27 00:51:26;;;;;;;7.25;4.30;;;;;;;;;;5093673;28;20126;-50
2021/12/27 00:53:51;;;;;;;8.02;4.20;;;;;;;;;;5096509;28;20030;-50
2021/12/27 00:56:16;;;;;;;7.18;4.35;;;;;;;;;;5102893;28;20021;-52
2021/12/27 00:58:42;;;;;;;7.22;4.55;;;;;;;;;;5101383;28;20090;-50
2021/12/27 01:01:07;;;;;;;8.40;4.28;;;;;;;;;;5102998;28;20497;-54
2021/12/27 01:03:32;;;;;;;7.10;4.53;;;;;;;;;;5098731;28;20035;-51
2021/12/27 01:05:57;;;;;;;7.18;4.00;;;;;;;;;;5104264;28;20086;-53
2021/12/27 01:08:23;;;;;;;7.32;4.25;;;;;;;;;;5104887;28;20073;-54
2021/12/27 01:13:47;;;;;;;7.00;4.45;;;;;;;;;;5095594;28;20047;-53
2021/12/27 01:16:14;;;;;;;7.10;3.75;;;;;;;;;;5093560;28;20124;-54
2021/12/27 01:18:41;;;;;;;7.93;4.40;;;;;;;;;;5093353;28;20115;-51
2021/12/27 01:21:06;;;;;;;5.80;3.80;;;;;;;;;;5093932;28;20032;-54
2021/12/27 01:23:31;;;;;;;6.28;4.18;;;;;;;;;;5093764;28;20039;-53
2021/12/27 01:25:57;;;;;;;5.80;3.50;;;;;;;;;;5093821;28;20472;-53
2021/12/27 01:28:22;;;;;;;4.55;3.33;;;;;;;;;;5111133;28;20038;-53
2021/12/27 01:30:49;;;;;;;10.10;4.50;;;;;;;;;;5098779;28;20066;-53
2021/12/27 01:33:15;;;;;;;8.43;4.57;;;;;;;;;;5093647;28;20496;-53
2021/12/27 01:35:40;;;;;;;5.95;3.85;;;;;;;;;;5093703;28;20499;-52
2021/12/27 01:38:05;;;;;;;6.50;3.65;;;;;;;;;;5093773;28;20076;-53
2021/12/27 01:40:31;;;;;;;6.43;3.88;;;;;;;;;;5093238;28;20083;-53
2021/12/27 01:43:02;;;;;;;7.03;4.10;;;;;;;;;;5093417;28;20040;-50
2021/12/27 01:45:28;;;;;;;5.78;3.72;;;;;;;;;;5093481;28;20036;-50
2021/12/27 01:47:53;;;;;;;6.78;4.10;;;;;;;;;;5093386;28;20032;-51
2021/12/27 01:50:18;;;;;;;7.00;4.80;;;;;;;;;;5093292;28;20031;-50
2021/12/27 01:52:43;;;;;;;7.68;4.82;;;;;;;;;;5093810;28;20024;-51
2021/12/27 01:55:09;;;;;;;5.43;3.83;;;;;;;;;;5087322;28;20041;-50
2021/12/27 01:57:34;;;;;;;6.32;3.78;;;;;;;;;;5072952;28;20104;-49
2021/12/27 01:59:59;;;;;;;6.32;4.03;;;;;;;;;;5072954;28;20032;-49
2021/12/27 02:02:25;;;;;;;6.65;4.00;;;;;;;;;;5073005;28;20090;-51
2021/12/27 02:04:50;;;;;;;7.95;4.15;;;;;;;;;;5073359;28;20063;-50
2021/12/27 02:07:15;;;;;;;6.13;4.05;;;;;;;;;;5073243;28;20357;-51
2021/12/27 02:09:50;;;;;;;4.95;3.55;;;;;;;;;;5091862;28;20392;-53
2021/12/27 02:12:16;;;;;;;5.47;4.00;;;;;;;;;;5092746;28;20070;-49
2021/12/27 02:14:41;;;;;;;5.32;3.78;;;;;;;;;;5092526;28;20109;-51
2021/12/27 02:17:06;;;;;;;4.95;3.35;;;;;;;;;;5093468;28;20020;-51
2021/12/27 02:19:34;;;;;;;6.65;4.30;;;;;;;;;;5092689;28;20060;-49
2021/12/27 02:22:00;;;;;;;7.60;4.80;;;;;;;;;;5074666;28;20476;-50
2021/12/27 02:24:25;;;;;;;5.05;3.55;;;;;;;;;;5093005;28;20028;-49
2021/12/27 02:26:51;;;;;;;5.85;4.00;;;;;;;;;;5097776;28;20031;-49
2021/12/27 02:29:16;;;;;;;5.93;3.67;;;;;;;;;;5110912;28;20043;-50
2021/12/27 02:31:41;;;;;;;6.47;3.90;;;;;;;;;;5093231;28;20028;-49
2021/12/27 02:34:10;;;;;;;4.65;3.30;;;;;;;;;;5092453;28;20032;-50
2021/12/27 02:36:35;;;;;;;8.73;4.72;;;;;;;;;;5092771;28;20063;-53
2021/12/27 02:39:00;;;;;;;5.32;3.47;;;;;;;;;;5092754;28;20488;-49
2021/12/27 02:41:25;;;;;;;6.07;3.78;;;;;;;;;;5092617;28;20483;-50
2021/12/27 02:43:51;;;;;;;5.75;4.00;;;;;;;;;;5093111;28;20097;-50
2021/12/27 02:46:16;;;;;;;7.07;4.18;;;;;;;;;;5092803;28;20040;-52
2021/12/27 02:48:46;;;;;;;7.25;4.13;;;;;;;;;;5092485;28;20496;-50
2021/12/27 02:51:12;;;;;;;5.95;4.65;;;;;;;;;;5088417;28;20027;-51
2021/12/27 02:53:37;;;;;;;5.93;3.88;;;;;;;;;;5072369;28;20115;-50
2021/12/27 02:56:04;;;;;;;6.95;4.13;;;;;;;;;;5072710;28;20017;-54
2021/12/27 02:58:29;;;;;;;9.52;4.93;;;;;;;;;;5072174;28;20556;-54
2021/12/27 03:01:06;;;;;;;7.40;4.38;;;;;;;;;;5075044;28;20067;-50
2021/12/27 03:03:31;;;;;;;6.20;4.43;;;;;;;;;;5076603;28;20082;-52
2021/12/27 03:05:56;;;;;;;5.32;3.72;;;;;;;;;;5076448;28;20408;-51
2021/12/27 03:08:23;;;;;;;5.97;4.03;;;;;;;;;;5084189;28;20020;-52
2021/12/27 03:10:49;;;;;;;8.68;4.40;;;;;;;;;;5096775;28;20032;-51
2021/12/27 03:13:28;;;;;;;7.80;4.30;;;;;;;;;;5096336;28;20143;-52
2021/12/27 03:15:58;;;;;;;6.38;3.95;;;;;;;;;;5096277;28;20028;-51
2021/12/27 03:18:23;;;;;;;6.07;4.20;;;;;;;;;;5096410;28;20048;-51
2021/12/27 03:20:48;;;;;;;7.50;4.72;;;;;;;;;;5096010;28;20044;-51
2021/12/27 03:23:14;;;;;;;4.78;3.47;;;;;;;;;;5096376;28;20077;-52
2021/12/27 03:25:39;;;;;;;8.00;5.03;;;;;;;;;;5096474;28;20020;-51
2021/12/27 03:28:05;;;;;;;6.40;4.25;;;;;;;;;;5111678;28;20023;-53
2021/12/27 03:30:30;;;;;;;7.32;3.58;;;;;;;;;;5103452;28;20039;-51
2021/12/27 03:32:55;;;;;;;6.93;4.10;;;;;;;;;;5095922;28;20036;-53
2021/12/27 03:35:34;;;;;;;7.38;4.53;;;;;;;;;;5095891;28;20031;-53
2021/12/27 03:38:00;;;;;;;6.13;4.10;;;;;;;;;;5096287;28;20082;-51
2021/12/27 03:40:26;;;;;;;7.45;4.10;;;;;;;;;;5095587;28;20032;-50
2021/12/27 03:42:51;;;;;;;7.65;4.60;;;;;;;;;;5094405;28;20492;-51
2021/12/27 03:45:18;;;;;;;6.32;3.90;;;;;;;;;;5096156;28;20040;-49
2021/12/27 03:47:44;;;;;;;7.47;3.85;;;;;;;;;;5088936;28;20090;-53
2021/12/27 03:50:09;;;;;;;7.68;4.45;;;;;;;;;;5075781;28;20017;-54
2021/12/27 03:52:34;;;;;;;7.10;4.60;;;;;;;;;;5075265;28;20102;-54
2021/12/27 03:54:59;;;;;;;7.13;4.13;;;;;;;;;;5075377;28;20130;-51
2021/12/27 03:57:26;;;;;;;8.20;4.10;;;;;;;;;;5075008;28;20024;-53
2021/12/27 04:00:15;;;;;;;5.72;3.95;;;;;;;;;;5075337;28;20029;-53
2021/12/27 04:02:37;;;;;;;4.97;3.88;;;;;;;;;;5075098;28;20044;-52
2021/12/27 04:05:03;;;;;;;5.53;4.18;;;;;;;;;;5075880;28;20024;-52
2021/12/27 04:07:33;;;;;;;4.63;3.70;;;;;;;;;;5075399;28;20020;-53
2021/12/27 04:09:58;;;;;;;7.80;4.78;;;;;;;;;;5095230;28;20028;-53
2021/12/27 04:12:23;;;;;;;6.85;4.20;;;;;;;;;;5094816;28;20067;-51
2021/12/27 04:14:49;;;;;;;6.85;4.43;;;;;;;;;;5095201;28;20032;-54
2021/12/27 04:17:14;;;;;;;5.05;4.00;;;;;;;;;;5095161;28;20036;-53
2021/12/27 04:19:39;;;;;;;5.18;4.03;;;;;;;;;;5095364;28;20044;-53
2021/12/27 04:22:04;;;;;;;6.32;3.92;;;;;;;;;;5094911;28;20480;-54
2021/12/27 04:24:29;;;;;;;6.32;4.25;;;;;;;;;;5094794;28;20395;-53
2021/12/27 04:26:55;;;;;;;6.47;4.15;;;;;;;;;;5094236;28;20492;-53
2021/12/27 04:29:20;;;;;;;6.07;4.05;;;;;;;;;;5094993;28;20020;-53
2021/12/27 04:31:45;;;;;;;5.38;4.03;;;;;;;;;;5095336;28;20459;-54
2021/12/27 04:34:10;;;;;;;6.30;4.05;;;;;;;;;;5094727;28;20598;-51
2021/12/27 04:36:36;;;;;;;6.25;4.03;;;;;;;;;;5094635;28;20047;-52
2021/12/27 04:39:02;;;;;;;5.95;3.92;;;;;;;;;;5094537;28;20036;-53
2021/12/27 04:41:27;;;;;;;7.38;4.07;;;;;;;;;;5094212;28;20039;-51
2021/12/27 04:43:52;;;;;;;6.22;3.75;;;;;;;;;;5094930;28;20436;-52
2021/12/27 04:46:18;;;;;;;5.43;3.85;;;;;;;;;;5094460;28;20027;-53
2021/12/27 04:48:43;;;;;;;6.30;4.20;;;;;;;;;;5094433;28;20034;-51
2021/12/27 04:51:08;;;;;;;5.85;3.95;;;;;;;;;;5094308;28;20020;-54
2021/12/27 04:53:33;;;;;;;4.80;3.85;;;;;;;;;;5093987;28;20047;-53
2021/12/27 04:55:59;;;;;;;7.10;4.30;;;;;;;;;;5094469;28;20031;-52
2021/12/27 04:58:24;;;;;;;6.30;4.05;;;;;;;;;;5094014;28;20036;-51
2021/12/27 05:00:50;;;;;;;5.40;3.25;;;;;;;;;;5091678;28;20032;-52
2021/12/27 05:03:16;;;;;;;7.00;4.15;;;;;;;;;;5092948;28;20118;-50
2021/12/27 05:05:44;;;;;;;4.90;3.78;;;;;;;;;;5094015;28;20058;-52
2021/12/27 05:08:09;;;;;;;7.35;3.60;;;;;;;;;;5094465;28;20081;-48
2021/12/27 05:10:35;;;;;;;6.25;4.15;;;;;;;;;;5093804;28;20376;-51
2021/12/27 05:13:02;;;;;;;5.55;4.10;;;;;;;;;;5093520;28;20055;-51
2021/12/27 05:15:27;;;;;;;5.82;3.80;;;;;;;;;;5093750;28;20496;-52
2021/12/27 05:17:52;;;;;;;8.23;4.38;;;;;;;;;;5094075;28;20026;-52
2021/12/27 05:20:17;;;;;;;9.13;4.28;;;;;;;;;;5089024;28;20045;-52
2021/12/27 05:22:43;;;;;;;6.63;3.40;;;;;;;;;;5075094;28;20103;-51
2021/12/27 05:25:10;;;;;;;6.03;3.45;;;;;;;;;;5093979;28;20033;-49
2021/12/27 05:27:38;;;;;;;7.55;3.45;;;;;;;;;;5093775;28;20495;-52
2021/12/27 05:30:03;;;;;;;5.70;3.63;;;;;;;;;;5093825;28;20054;-51
2021/12/27 05:32:28;;;;;;;5.45;2.80;;;;;;;;;;5093396;28;20115;-51
2021/12/27 05:34:54;;;;;;;5.63;2.85;;;;;;;;;;5094020;28;20499;-50
2021/12/27 05:37:19;;;;;;;5.03;2.80;;;;;;;;;;5093399;28;20028;-52
2021/12/27 05:39:44;;;;;;;5.97;3.15;;;;;;;;;;5093434;28;20492;-52
2021/12/27 05:42:09;;;;;;;6.25;2.42;;;;;;;;;;5093232;28;20035;-51
2021/12/27 05:44:35;;;;;;;6.38;2.13;;;;;;;;;;5104825;28;20601;-49
2021/12/27 05:47:01;;;;;;;5.95;2.90;;;;;;;;;;5114305;28;20012;-51
2021/12/27 05:49:26;;;;;;;4.07;2.13;;;;;;;;;;5113366;28;20035;-52
2021/12/27 05:51:52;;;;;;;4.05;2.30;;;;;;;;;;5113488;28;20028;-51
2021/12/27 05:54:20;;;;;;;3.90;2.17;;;;;;;;;;5095086;28;20534;-50
2021/12/27 05:56:46;;;;;;;5.38;2.30;;;;;;;;;;5113058;28;20024;-48
2021/12/27 05:59:12;;;;;;;4.43;2.40;;;;;;;;;;5113434;28;20016;-52
2021/12/27 06:01:37;;;;;;;3.25;2.15;;;;;;;;;;5114147;28;20094;-51
2021/12/27 06:04:03;;;;;;;5.75;2.58;;;;;;;;;;5113666;28;20031;-51
2021/12/27 06:06:28;;;;;;;12.32;2.30;;;;;;;;;;5113415;28;20084;-51
2021/12/27 06:08:53;;;;;;;4.22;2.47;;;;;;;;;;5100651;28;20032;-49
2021/12/27 06:11:18;;;;;;;6.65;2.63;;;;;;;;;;5092878;28;20103;-53
2021/12/27 06:13:44;;;;;;;9.25;2.63;;;;;;;;;;5093502;28;20039;-53
2021/12/27 06:16:09;;;;;;;5.03;2.28;;;;;;;;;;5092639;28;20028;-53
2021/12/27 06:18:35;;;;;;;3.75;2.28;;;;;;;;;;5092586;28;20036;-50
2021/12/27 06:21:00;;;;;;;5.80;2.50;;;;;;;;;;5092636;28;20093;-52
2021/12/27 06:23:25;;;;;;;4.20;2.33;;;;;;;;;;5092808;28;20028;-51
2021/12/27 06:25:50;;;;;;;8.90;2.85;;;;;;;;;;5093171;28;20028;-51
2021/12/27 06:28:17;;;;;;;5.00;2.05;;;;;;;;;;5092411;28;20036;-50
2021/12/27 06:30:42;;;;;;;5.45;2.67;;;;;;;;;;5092561;28;20032;-49
2021/12/27 06:33:07;;;;;;;5.53;2.30;;;;;;;;;;5092491;28;20032;-51
2021/12/27 06:35:33;;;;;;;6.20;2.88;;;;;;;;;;5092803;28;20426;-51
2021/12/27 06:37:58;;;;;;;8.30;2.60;;;;;;;;;;5108246;28;20032;-50
2021/12/27 06:40:24;;;;;;;3.92;2.25;;;;;;;;;;5092577;28;20404;-50
2021/12/27 06:42:49;;;;;;;5.35;2.53;;;;;;;;;;5092240;28;20052;-50
2021/12/27 06:45:14;;;;;;;5.45;2.35;;;;;;;;;;5109860;28;20027;-50
2021/12/27 06:47:39;;;;;;;5.72;2.10;;;;;;;;;;5112969;28;20023;-50
2021/12/27 06:50:05;;;;;;;5.78;2.15;;;;;;;;;;5113299;28;20023;-50
2021/12/27 06:52:31;;;;;;;7.28;2.72;;;;;;;;;;5112756;28;20368;-50
2021/12/27 06:54:56;;;;;;;8.85;2.60;;;;;;;;;;5112794;28;20046;-49
2021/12/27 06:57:21;;;;;;;5.95;2.60;;;;;;;;;;5112704;28;20161;-51
2021/12/27 06:59:47;;;;;;;7.93;2.47;;;;;;;;;;5112864;28;20034;-49
2021/12/27 07:02:12;;;;;;;8.70;2.88;;;;;;;;;;5111010;28;20028;-51
2021/12/27 07:04:37;;;;;;;5.65;2.90;;;;;;;;;;5094446;28;20028;-48
2021/12/27 07:07:03;;;;;;;10.38;3.22;;;;;;;;;;5112873;28;20046;-52
2021/12/27 07:09:28;;;;;;;7.20;2.45;;;;;;;;;;5095126;28;20040;-51
2021/12/27 07:11:54;;;;;;;5.88;2.47;;;;;;;;;;5097128;28;20101;-51
2021/12/27 07:14:19;;;;;;;9.20;2.33;;;;;;;;;;5112517;28;20027;-50
2021/12/27 07:16:44;;;;;;;7.88;3.33;;;;;;;;;;5101501;28;20028;-51
2021/12/27 07:19:10;;;;;;;6.20;2.53;;;;;;;;;;5100781;28;20119;-49
2021/12/27 07:21:35;;;;;;;5.25;2.28;;;;;;;;;;5100721;28;20392;-51
2021/12/27 07:24:02;;;;;;;5.32;2.65;;;;;;;;;;5102345;28;20488;-52
2021/12/27 07:26:27;;;;;;;7.10;2.75;;;;;;;;;;5102120;28;20043;-50
2021/12/27 07:28:52;;;;;;;5.90;2.70;;;;;;;;;;5100954;28;20472;-52
2021/12/27 07:31:18;;;;;;;4.55;2.47;;;;;;;;;;5099529;28;20440;-50
2021/12/27 07:33:43;;;;;;;4.90;2.40;;;;;;;;;;5092295;28;20035;-53
2021/12/27 07:36:10;;;;;;;6.60;2.38;;;;;;;;;;5124894;28;20403;-51
2021/12/27 07:38:36;;;;;;;7.68;2.08;;;;;;;;;;5099669;28;20765;-52
2021/12/27 07:41:02;;;;;;;8.32;2.72;;;;;;;;;;5101408;28;20020;-51
2021/12/27 07:43:27;;;;;;;5.28;2.22;;;;;;;;;;5102796;28;20043;-51
2021/12/27 07:45:52;;;;;;;5.97;2.10;;;;;;;;;;5094156;28;20043;-51
2021/12/27 07:48:18;;;;;;;5.97;2.38;;;;;;;;;;5095669;28;20460;-52
2021/12/27 07:50:43;;;;;;;6.72;2.53;;;;;;;;;;5095526;28;20404;-52
2021/12/27 07:53:08;;;;;;;6.05;2.63;;;;;;;;;;5096210;28;20027;-51
2021/12/27 07:55:33;;;;;;;6.30;2.65;;;;;;;;;;5077288;28;20029;-52
2021/12/27 07:57:59;;;;;;;9.90;2.97;;;;;;;;;;5103441;28;20043;-54
2021/12/27 08:00:24;;;;;;;7.80;3.13;;;;;;;;;;5107678;28;20151;-55
2021/12/27 08:02:50;;;;;;;8.25;3.25;;;;;;;;;;5106420;28;20035;-55
2021/12/27 08:05:15;;;;;;;11.13;3.58;;;;;;;;;;5095700;28;20107;-55
2021/12/27 08:07:42;;;;;;;8.32;3.28;;;;;;;;;;5093173;28;20039;-54
2021/12/27 08:10:08;;;;;;;6.63;2.38;;;;;;;;;;5088501;28;20119;-55
2021/12/27 08:12:34;;;;;;;9.10;3.03;;;;;;;;;;5088666;28;20066;-55
2021/12/27 08:14:59;;;;;;;7.65;3.00;;;;;;;;;;5090421;28;20028;-56
2021/12/27 08:17:24;;;;;;;9.00;3.00;;;;;;;;;;5090042;28;20024;-56
2021/12/27 08:19:49;;;;;;;7.72;3.28;;;;;;;;;;5077165;28;20044;-56
2021/12/27 08:22:16;;;;;;;11.27;4.07;;;;;;;;;;5085923;28;20131;-55
2021/12/27 08:24:41;;;;;;;10.20;3.15;;;;;;;;;;5092682;28;20123;-55
2021/12/27 08:27:07;;;;;;;10.48;3.30;;;;;;;;;;5092830;28;20036;-55
2021/12/27 08:29:32;;;;;;;12.00;4.18;;;;;;;;;;5088884;28;20036;-55
2021/12/27 08:31:57;;;;;;;8.98;3.22;;;;;;;;;;5091304;28;20085;-56
2021/12/27 08:34:23;;;;;;;11.98;3.85;;;;;;;;;;5092499;28;20020;-56
2021/12/27 08:36:49;;;;;;;8.30;3.20;;;;;;;;;;5094259;28;20040;-58
2021/12/27 08:39:15;;;;;;;7.75;3.15;;;;;;;;;;5098753;28;20024;-57
2021/12/27 08:41:40;;;;;;;10.98;3.95;;;;;;;;;;5095959;28;20136;-58
2021/12/27 08:44:05;;;;;;;15.10;3.88;;;;;;;;;;5096133;28;20091;-56
2021/12/27 08:46:34;;;;;;;11.40;4.05;;;;;;;;;;5096689;28;20033;-57
2021/12/27 08:48:59;;;;;;;11.50;3.65;;;;;;;;;;5079880;28;20036;-57
2021/12/27 08:51:25;;;;;;;15.25;4.03;;;;;;;;;;5095857;28;20028;-57
2021/12/27 08:53:50;;;;;;;13.60;5.13;;;;;;;;;;5096803;28;20036;-56
2021/12/27 08:56:16;;;;;;;14.07;3.72;;;;;;;;;;5096241;28;20035;-57
2021/12/27 08:58:42;;;;;;;16.45;4.63;;;;;;;;;;5095626;28;20076;-56
2021/12/27 09:01:07;;;;;;;12.27;3.90;;;;;;;;;;5094656;28;20073;-55
2021/12/27 09:03:34;;;;;;;19.52;5.13;;;;;;;;;;5096269;28;20056;-56
2021/12/27 09:05:59;;;;;;;11.23;4.10;;;;;;;;;;5096361;28;20712;-57
2021/12/27 09:08:24;;;;;;;10.27;4.05;;;;;;;;;;5093867;28;20030;-55
2021/12/27 09:10:49;;;;;;;11.43;3.20;;;;;;;;;;5095673;28;20028;-57
2021/12/27 09:13:14;;;;;;;12.18;4.13;;;;;;;;;;5095362;28;20035;-55
2021/12/27 09:15:40;;;;;;;11.65;3.75;;;;;;;;;;5095300;28;20028;-55
2021/12/27 09:18:05;;;;;;;13.70;3.70;;;;;;;;;;5095009;28;20028;-55
2021/12/27 09:20:30;;;;;;;10.73;4.25;;;;;;;;;;5095246;28;20054;-56
2021/12/27 09:22:55;;;;;;;13.73;5.32;;;;;;;;;;5095698;28;20066;-53
2021/12/27 09:25:21;;;;;;;13.93;4.15;;;;;;;;;;5093707;28;20035;-53
2021/12/27 09:27:46;;;;;;;11.07;4.50;;;;;;;;;;5095250;28;20036;-56
2021/12/27 09:30:12;;;;;;;17.67;4.53;;;;;;;;;;5095125;28;20044;-55
2021/12/27 09:32:37;;;;;;;14.82;4.47;;;;;;;;;;5091457;28;20039;-55
2021/12/27 09:35:03;;;;;;;12.68;4.70;;;;;;;;;;5096013;28;20035;-55
2021/12/27 09:37:28;;;;;;;10.38;3.88;;;;;;;;;;5094481;28;20055;-55
2021/12/27 09:39:54;;;;;;;13.18;4.45;;;;;;;;;;5094889;28;20043;-55
2021/12/27 09:42:20;;;;;;;13.13;4.13;;;;;;;;;;5094564;28;20055;-56
2021/12/27 09:44:45;;;;;;;9.57;4.28;;;;;;;;;;5094415;28;20445;-55
2021/12/27 09:47:11;;;;;;;14.87;4.07;;;;;;;;;;5094346;28;20026;-55
2021/12/27 09:49:36;;;;;;;12.57;3.70;;;;;;;;;;5096571;28;20445;-53
2021/12/27 09:52:02;;;;;;;9.65;4.15;;;;;;;;;;5100487;28;20030;-55
2021/12/27 09:54:27;;;;;;;11.48;4.45;;;;;;;;;;5097225;28;20652;-55
2021/12/27 09:56:53;;;;;;;17.48;4.75;;;;;;;;;;5093495;28;20039;-54
2021/12/27 09:59:18;;;;;;;13.10;4.15;;;;;;;;;;5094496;28;20110;-56
2021/12/27 10:01:43;;;;;;;12.63;5.18;;;;;;;;;;5094908;28;20024;-56
2021/12/27 10:04:08;;;;;;;17.45;4.68;;;;;;;;;;5091706;28;20056;-55
2021/12/27 10:06:34;;;;;;;13.25;3.92;;;;;;;;;;5096005;28;20058;-56
2021/12/27 10:09:04;;;;;;;15.48;4.65;;;;;;;;;;5100006;28;20028;-55
2021/12/27 10:11:31;;;;;;;14.25;4.25;;;;;;;;;;5097462;28;20074;-55
2021/12/27 10:14:10;;;;;;;11.55;4.05;;;;;;;;;;5092942;28;20015;-54
2021/12/27 10:16:40;;;;;;;12.85;4.18;;;;;;;;;;5092482;28;20090;-56
2021/12/27 10:19:07;;;;;;;17.08;4.15;;;;;;;;;;5092669;28;20039;-57
2021/12/27 10:21:33;;;;;;;16.80;4.80;;;;;;;;;;5093790;28;20540;-56
2021/12/27 10:24:10;;;;;;;14.52;4.35;;;;;;;;;;5094784;28;20042;-55
2021/12/27 10:26:36;;;;;;;11.48;4.28;;;;;;;;;;5091976;28;20028;-55
2021/12/27 10:29:20;;;;;;;12.57;4.13;;;;;;;;;;5093204;28;20391;-57
2021/12/27 10:32:04;;;;;;;9.20;3.42;;;;;;;;;;5091818;28;20590;-55
2021/12/27 10:34:37;;;;;;;14.20;4.32;;;;;;;;;;5092981;28;20028;-55
2021/12/27 10:37:07;;;;;;;10.18;3.92;;;;;;;;;;5092908;28;20103;-57
2021/12/27 10:39:51;;;;;;;12.27;3.70;;;;;;;;;;5095078;28;20137;-58
2021/12/27 10:42:18;;;;;;;12.38;4.10;;;;;;;;;;5097902;28;20032;-56
2021/12/27 10:44:43;;;;;;;10.77;4.43;;;;;;;;;;5098315;28;20031;-55
2021/12/27 10:47:27;;;;;;;11.05;4.63;;;;;;;;;;5100152;28;20400;-56
2021/12/27 10:49:53;;;;;;;10.90;4.00;;;;;;;;;;5098588;28;20586;-56
2021/12/27 10:52:18;;;;;;;9.68;3.70;;;;;;;;;;5099838;28;20028;-56
2021/12/27 10:54:44;;;;;;;9.45;4.15;;;;;;;;;;5082005;28;20039;-56
2021/12/27 10:57:09;;;;;;;8.73;3.67;;;;;;;;;;5096035;28;20035;-54
2021/12/27 10:59:34;;;;;;;13.07;4.70;;;;;;;;;;5095600;28;20020;-54
2021/12/27 11:02:13;;;;;;;9.30;3.85;;;;;;;;;;5094988;28;20012;-56
2021/12/27 11:04:39;;;;;;;10.75;3.78;;;;;;;;;;5094718;28;20130;-57
2021/12/27 11:07:05;;;;;;;10.07;3.85;;;;;;;;;;5094809;28;20182;-53
2021/12/27 11:09:31;;;;;;;7.13;2.97;;;;;;;;;;5096419;28;20041;-53
2021/12/27 11:11:56;;;;;;;9.30;3.42;;;;;;;;;;5097398;28;20480;-57
2021/12/27 11:14:21;;;;;;;11.32;3.50;;;;;;;;;;5093540;28;20085;-56
2021/12/27 11:16:46;;;;;;;13.27;3.70;;;;;;;;;;5093448;28;20282;-56
2021/12/27 11:19:12;;;;;;;6.95;2.70;;;;;;;;;;5093588;28;20428;-55
2021/12/27 11:21:41;;;;;;;6.28;2.60;;;;;;;;;;5097752;28;20028;-56
2021/12/27 11:24:06;;;;;;;7.82;3.35;;;;;;;;;;5096270;28;20031;-52
2021/12/27 11:26:33;;;;;;;10.57;3.80;;;;;;;;;;5098058;28;20039;-53
2021/12/27 11:29:08;;;;;;;9.20;4.07;;;;;;;;;;5100798;28;20039;-53
2021/12/27 11:31:33;;;;;;;3.97;2.20;;;;;;;;;;5099279;28;20085;-54
2021/12/27 11:33:58;;;;;;;8.77;2.65;;;;;;;;;;5097836;28;20024;-54
2021/12/27 11:36:28;;;;;;;7.80;2.67;;;;;;;;;;5097245;28;20097;-55
2021/12/27 11:38:54;;;;;;;6.53;3.25;;;;;;;;;;5094385;28;20437;-55
2021/12/27 11:41:35;;;;;;;8.32;2.85;;;;;;;;;;5091030;28;20077;-56
2021/12/27 11:44:08;;;;;;;9.77;2.83;;;;;;;;;;5094117;28;20509;-54
2021/12/27 11:46:48;;;;;;;6.63;2.67;;;;;;;;;;5093870;28;20025;-54
2021/12/27 11:49:14;;;;;;;4.50;2.28;;;;;;;;;;5094240;28;20436;-55
2021/12/27 11:51:40;;;;;;;7.90;2.70;;;;;;;;;;5094073;28;20066;-55
2021/12/27 11:54:24;;;;;;;5.75;2.55;;;;;;;;;;5093760;28;20028;-55
2021/12/27 11:56:49;;;;;;;7.43;2.35;;;;;;;;;;5093558;28;20047;-55
2021/12/27 11:59:28;;;;;;;8.27;2.58;;;;;;;;;;5093359;28;20028;-52
2021/12/27 12:01:58;;;;;;;4.57;2.17;;;;;;;;;;5098257;28;20026;-54
2021/12/27 12:04:42;;;;;;;10.82;2.50;;;;;;;;;;5099375;28;20369;-56
2021/12/27 12:07:28;;;;;;;5.63;2.35;;;;;;;;;;5102606;28;20047;-56
2021/12/27 12:09:56;;;;;;;6.63;2.38;;;;;;;;;;5098825;28;20035;-54
2021/12/27 12:12:21;;;;;;;6.85;2.35;;;;;;;;;;5101443;28;20103;-55
2021/12/27 12:14:52;;;;;;;3.50;2.17;;;;;;;;;;5102844;28;20115;-56
2021/12/27 12:17:33;;;;;;;8.00;2.70;;;;;;;;;;5102227;28;20020;-54
2021/12/27 12:19:59;;;;;;;7.05;1.92;;;;;;;;;;5100232;28;20487;-55
2021/12/27 12:22:38;;;;;;;5.78;2.63;;;;;;;;;;5104252;28;20061;-55
2021/12/27 12:25:20;;;;;;;6.18;2.53;;;;;;;;;;5101301;28;20035;-52
2021/12/27 12:27:51;;;;;;;10.25;3.22;;;;;;;;;;5098708;28;20043;-54
2021/12/27 12:30:16;;;;;;;3.45;2.40;;;;;;;;;;5097728;28;20129;-55
2021/12/27 12:32:55;;;;;;;14.38;2.45;;;;;;;;;;5097765;28;20554;-53
2021/12/27 12:35:32;;;;;;;7.30;2.38;;;;;;;;;;5096508;28;20054;-53
2021/12/27 12:38:16;;;;;;;5.20;2.00;;;;;;;;;;5093511;28;20569;-52
2021/12/27 12:40:43;;;;;;;4.45;2.53;;;;;;;;;;5094813;28;20046;-51
2021/12/27 12:43:08;;;;;;;6.35;2.03;;;;;;;;;;5094564;28;20476;-52
2021/12/27 12:45:34;;;;;;;5.68;2.05;;;;;;;;;;5093568;28;20039;-54
2021/12/27 12:47:59;;;;;;;13.25;2.08;;;;;;;;;;5090493;28;20028;-55
2021/12/27 12:50:24;;;;;;;4.30;2.13;;;;;;;;;;5093978;28;20671;-54
2021/12/27 12:52:50;;;;;;;3.92;2.28;;;;;;;;;;5094029;28;20052;-53
2021/12/27 12:55:18;;;;;;;4.07;1.80;;;;;;;;;;5092439;28;20131;-55
2021/12/27 12:57:48;;;;;;;5.45;2.22;;;;;;;;;;5093497;28;20027;-55
2021/12/27 13:00:13;;;;;;;4.10;2.10;;;;;;;;;;5091107;28;20093;-55
2021/12/27 13:02:41;;;;;;;3.50;1.77;;;;;;;;;;5090890;28;20040;-54
2021/12/27 13:05:08;;;;;;;4.22;1.92;;;;;;;;;;5091439;28;20020;-53
2021/12/27 13:07:44;;;;;;;3.22;1.90;;;;;;;;;;5090710;28;20105;-50
2021/12/27 13:10:18;;;;;;;6.07;2.15;;;;;;;;;;5090787;28;20109;-52
2021/12/27 13:12:44;;;;;;;3.00;1.77;;;;;;;;;;5089628;28;20036;-51
2021/12/27 13:15:20;;;;;;;4.38;1.90;;;;;;;;;;5091170;28;20031;-51
2021/12/27 13:18:03;;;;;;;2.47;1.50;;;;;;;;;;5092200;28;20059;-53
2021/12/27 13:20:29;;;;;;;5.65;2.38;;;;;;;;;;5089429;28;20040;-50
2021/12/27 13:22:56;;;;;;;3.60;1.63;;;;;;;;;;5090327;28;20077;-51
2021/12/27 13:25:27;;;;;;;5.95;2.33;;;;;;;;;;5090734;28;20405;-49
2021/12/27 13:28:03;;;;;;;3.88;1.75;;;;;;;;;;5088500;28;20770;-50
2021/12/27 13:30:28;;;;;;;3.47;2.20;;;;;;;;;;5090459;28;20036;-52
2021/12/27 13:32:53;;;;;;;4.47;2.40;;;;;;;;;;5089476;28;20034;-53
2021/12/27 13:35:19;;;;;;;4.82;2.03;;;;;;;;;;5090238;28;20369;-50
2021/12/27 13:37:45;;;;;;;3.20;1.83;;;;;;;;;;5091246;28;20073;-50
2021/12/27 13:40:14;;;;;;;4.65;2.03;;;;;;;;;;5090420;28;20023;-53
2021/12/27 13:42:39;;;;;;;3.97;2.00;;;;;;;;;;5089819;28;20032;-49
2021/12/27 13:45:15;;;;;;;2.97;1.80;;;;;;;;;;5089679;28;20039;-52
2021/12/27 13:47:54;;;;;;;7.43;2.53;;;;;;;;;;5091422;28;20036;-46
2021/12/27 13:50:26;;;;;;;3.97;1.30;;;;;;;;;;5090835;28;20483;-50
2021/12/27 13:52:53;;;;;;;3.28;1.85;;;;;;;;;;5089658;28;20024;-47
2021/12/27 13:55:23;;;;;;;3.33;1.83;;;;;;;;;;5087398;28;20034;-47
2021/12/27 13:57:48;;;;;;;3.37;1.73;;;;;;;;;;5088583;28;20047;-53
2021/12/27 14:00:14;;;;;;;3.65;1.85;;;;;;;;;;5087223;28;20141;-52
2021/12/27 14:02:44;;;;;;;2.38;1.60;;;;;;;;;;5087424;28;20031;-52
2021/12/27 14:05:09;;;;;;;3.43;2.07;;;;;;;;;;5088680;28;20028;-53
2021/12/27 14:07:34;;;;;;;3.00;1.55;;;;;;;;;;5087043;28;20020;-53
2021/12/27 14:10:00;;;;;;;4.07;1.50;;;;;;;;;;5089907;28;20035;-49
2021/12/27 14:12:30;;;;;;;4.38;1.60;;;;;;;;;;5090396;28;20036;-53
2021/12/27 14:15:01;;;;;;;6.25;1.95;;;;;;;;;;5089846;28;20048;-49
2021/12/27 14:17:27;;;;;;;4.38;1.75;;;;;;;;;;5089959;28;20040;-52
2021/12/27 14:20:01;;;;;;;5.22;2.20;;;;;;;;;;5090847;28;20035;-50
2021/12/27 14:22:43;;;;;;;2.47;1.35;;;;;;;;;;5090051;28;20333;-48
2021/12/27 14:25:09;;;;;;;2.63;1.17;;;;;;;;;;5090077;28;20036;-48
2021/12/27 14:27:41;;;;;;;3.72;1.80;;;;;;;;;;5090501;28;20047;-51
2021/12/27 14:30:07;;;;;;;3.30;1.65;;;;;;;;;;5093500;28;20069;-54
2021/12/27 14:32:33;;;;;;;6.18;2.25;;;;;;;;;;5091912;28;20039;-54
2021/12/27 14:34:58;;;;;;;4.22;2.50;;;;;;;;;;5090122;28;20503;-54
2021/12/27 14:37:23;;;;;;;4.07;1.90;;;;;;;;;;5089240;28;20043;-53
2021/12/27 14:39:49;;;;;;;4.97;1.95;;;;;;;;;;5089949;28;20039;-52
2021/12/27 14:42:15;;;;;;;6.97;2.55;;;;;;;;;;5089287;28;20089;-53